Country
Station

 

Weather  for  Malmo/Sturup  -  Sweden    Sweden

  
12 °C (54 °F)
    
 
 

Current METAR for Malmo/Sturup is :

ESMS 180950Z 30013KT 9999 FEW020 12/09 Q1016

 

This is a report for Malmo/Sturup - Sweden.
 
The report was made 26 minutes ago, at 09:50 UTC .
The wind was blowing at a speed of 6.7 meters per second (15.0 miles per hour) from west/northwest (300°).
 
The temperature was 12 °C (54 °F), with a dew-point at 9 °C (48 °F).
The atmospheric pressure was 1016 hPa (30.00 inHg).
The relative humidity was 81.9%.
 
There were a few clouds at a height of 610 meters (2000 feet).
 
The overall visibility was greater than 10 kilometers (6.2 miles).
 

 
 
 
 

Country :   A   B   C   D   E   F   G   H   I   J   K   L   M   N   O   P   Q   R   S   T   U   V   W   Y   Z

 

Site Info  |  Disclaimer  |  Credits  |  Privacy
Contact us  |  Add to favorites
© 2013-2019 METARs - All rights reserved